| Date | Time | Temp. (oF) | Dew Point (oF) | Rel. Hum. (%) | Press. (in.) | Wind Dir. | Wind Speed (mph) | Hourly Rainfall (in.) |
|
|---|---|---|---|---|---|---|---|---|---|
| 1 | 05/06 | 00:00 | 60 | 29 | 32 | 30.25 | NNW | 4 | 0.00 |
| 2 | 05/05 | 23:00 | 61 | 32 | 35 | 30.23 | N | 2 | 0.00 |
| 3 | 05/05 | 22:00 | 64 | 35 | 35 | 30.20 | NNW | 6 | 0.00 |
| 4 | 05/05 | 21:00 | 65 | 44 | 48 | 30.17 | N | 4 | 0.00 |
| 5 | 05/05 | 20:00 | 68 | 49 | 51 | 30.12 | W | 1 | 0.00 |
| 6 | 05/05 | 19:00 | 69 | 48 | 48 | 30.09 | SSE | 4 | 0.00 |
| 7 | 05/05 | 18:00 | 70 | 48 | 46 | 30.08 | NW | 1 | 0.00 |
| 8 | 05/05 | 17:00 | 68 | 46 | 46 | 30.10 | NW | 2 | 0.00 |
| 9 | 05/05 | 16:00 | 67 | 47 | 50 | 30.12 | NNE | 9 | 0.00 |
| 10 | 05/05 | 15:00 | 67 | 46 | 48 | 30.13 | N | 13 | 0.00 |
| 11 | 05/05 | 14:00 | 67 | 47 | 49 | 30.12 | NNE | 11 | 0.00 |
| 12 | 05/05 | 13:00 | 71 | 49 | 47 | 30.11 | WNW | 16 | 0.00 |
| 13 | 05/05 | 12:00 | 74 | 54 | 50 | 30.08 | N | 6 | 0.00 |
| 14 | 05/05 | 11:00 | 73 | 54 | 52 | 30.08 | WNW | 7 | 0.00 |
| 15 | 05/05 | 10:00 | 72 | 56 | 58 | 30.08 | N | 8 | 0.00 |
| 16 | 05/05 | 09:00 | 71 | 58 | 65 | 30.05 | NNW | 5 | 0.00 |
| 17 | 05/05 | 08:00 | 72 | 60 | 68 | 30.02 | W | 1 | 0.00 |
| 18 | 05/05 | 07:00 | 70 | 60 | 71 | 30.00 | WNW | 3 | 0.00 |
| 19 | 05/05 | 06:00 | 71 | 61 | 71 | 29.98 | SSW | 0 | 0.00 |
| 20 | 05/05 | 05:00 | 72 | 60 | 67 | 29.97 | WNW | 1 | 0.00 |
| 21 | 05/05 | 04:00 | 73 | 60 | 65 | 29.98 | WNW | 2 | 0.00 |
| 22 | 05/05 | 03:00 | 74 | 61 | 65 | 29.97 | WNW | 2 | 0.00 |
| 23 | 05/05 | 02:00 | 74 | 62 | 68 | 29.98 | SSW | 1 | 0.00 |
| 24 | 05/05 | 01:00 | 75 | 63 | 67 | 29.99 | W | 4 | 0.00 |